PAUN/UNK METAR and TAF weather

Enter ICAO airport designator
Station Type Date Time Source
PAUN METAR 2021/02/27 08:56 UTC NOAA

PAUN 270856Z AUTO 02004KT 10SM BKN060 M16/M19 A2970 RMK AO2 SLP063 T11561194 411331239 56012 FZRANO


Station Type Date Time Source
PAUN Decoded METAR 2021/02/27 08:56 UTC NOAA

Unalakleet, AK, United States (PAUN) 63-53N 160-48W 6M
Feb 27, 2021 - 03:56 AM EST / 2021.02.27 0856 UTC
Wind: from the NNE (020 degrees) at 5 MPH (4 KT):0
Visibility: 10 mile(s):0
Sky conditions: mostly cloudy
Temperature: 3.9 F (-15.6 C)
Windchill: -5 F (-21 C):2
Dew Point: -2.9 F (-19.4 C)
Relative Humidity: 72%
Pressure (altimeter): 29.7 in. Hg (1005 hPa)
Pressure tendency: 0.04 inches (1.2 hPa) lower than three hours ago
ob: PAUN 270856Z AUTO 02004KT 10SM BKN060 M16/M19 A2970 RMK AO2 SLP063 T11561194 411331239 56012 FZRANO
cycle: 9

Station Type Date Time Source
PAUN TAF 2021/02/27 07:59 UTC NOAA

TAF
AMD PAUN 270659Z 2707/2806 05012KT P6SM VCSH OVC050
FM272100 05010KT P6SM BKN050

Example: see airport list